Meteo Giornale » Osservazioni meteo Croazia » Rijeka-Omisalj

ore: 15:30 - Osservazioni Meteo Rijeka-Omisalj
Lat. 45° 13' N Lon. 14° 35' E Alt. 85 metri s.l.m.

sereno Europe/Zagreb

12 °C

Sereno

Temp. 24 Ore

4 °C

13 °C

Ovest

11.1 Km/h

Dew point -5 °C

Umidità 30 %

Visibilità  10 Km

Il sole sorge alle ore 06:36

Il sole tramonta alle ore 19:33

Data e Ora Cielo e Fenomeni T °C DP °C Um. % Pres. hPa Vis. km Vento km/h
Oggi h: 15:30 sereno Sereno 12 -5 30 1013 10 O 11.1
Oggi h: 15:00 sereno Sereno 13 -6 26 1013 10 O 13
Oggi h: 14:30 sereno Sereno 12 -6 27 1013 10 O/NO 11.1
Oggi h: 14:00 sereno Sereno 11 -7 27 1014 10 O 14.8
Oggi h: 13:30 sereno Sereno 12 -6 27 1014 10 O 14.8
Oggi h: 13:00 sereno Sereno 12 -7 25 1014 10 O 14.8
Oggi h: 12:30 sereno Sereno 11 -7 27 1015 10 O 14.8
Oggi h: 12:00 sereno Sereno 11 -8 25 1015 10 O 11.1
Oggi h: 11:30 sereno Sereno 10 -9 25 1015 10 N 9.3
Oggi h: 11:00 sereno Sereno 10 -10 23 1015 10 N 7.4
Oggi h: 10:30 sereno Sereno 10 -9 25 1015 10 N 5.5
Oggi h: 10:00 sereno Sereno 8 -10 26 1015 10 NE 9.3
Oggi h: 09:30 sereno Sereno 8 -10 26 1015 10 N/NE 9.3
Oggi h: 09:00 sereno Sereno 7 -11 26 1015 10 N/NE 13
Oggi h: 08:30 sereno Sereno 7 -11 26 1015 10 N/NE 14.8
Oggi h: 07:30 sereno Sereno 5 -11 30 1016 10 NE 11.1
Oggi h: 07:00 sereno Sereno 4 -11 32 1015 10 NE 11.1
Ieri h: 19:00 sereno Sereno 9 -12 21 1018 10 E 20.3
Ieri h: 18:00 sereno Sereno 10 -12 19 1017 10 E/NE 22.2
Ieri h: 17:30 sereno Sereno 10 -13 18 1018 10 E/NE 24